sensor_id;sensor_type;location;lat;lon;timestamp;temperature;humidity
52036;DHT22;38046;49.448;32.074;2023-01-31T00:01:25;1.30;65.70
52036;DHT22;38046;49.448;32.074;2023-01-31T00:03:58;1.30;65.70
52036;DHT22;38046;49.448;32.074;2023-01-31T00:06:28;1.30;65.70
52036;DHT22;38046;49.448;32.074;2023-01-31T00:08:55;1.30;65.70
52036;DHT22;38046;49.448;32.074;2023-01-31T00:11:23;1.20;65.70
52036;DHT22;38046;49.448;32.074;2023-01-31T00:13:50;1.20;65.80
52036;DHT22;38046;49.448;32.074;2023-01-31T00:16:16;1.20;65.90
52036;DHT22;38046;49.448;32.074;2023-01-31T00:18:42;1.20;66.00
52036;DHT22;38046;49.448;32.074;2023-01-31T00:21:35;1.20;66.00
52036;DHT22;38046;49.448;32.074;2023-01-31T00:24:01;1.20;66.10
52036;DHT22;38046;49.448;32.074;2023-01-31T00:26:32;1.20;66.10
52036;DHT22;38046;49.448;32.074;2023-01-31T00:28:59;1.20;66.10
52036;DHT22;38046;49.448;32.074;2023-01-31T00:31:27;1.20;66.10
52036;DHT22;38046;49.448;32.074;2023-01-31T00:33:54;1.10;66.10
52036;DHT22;38046;49.448;32.074;2023-01-31T00:36:25;1.10;66.10
52036;DHT22;38046;49.448;32.074;2023-01-31T00:38:53;1.10;66.10
52036;DHT22;38046;49.448;32.074;2023-01-31T00:41:20;1.00;66.20
52036;DHT22;38046;49.448;32.074;2023-01-31T00:43:46;1.00;66.40
52036;DHT22;38046;49.448;32.074;2023-01-31T00:46:12;1.00;66.40
52036;DHT22;38046;49.448;32.074;2023-01-31T00:48:38;1.00;66.50
52036;DHT22;38046;49.448;32.074;2023-01-31T00:51:04;1.00;66.60
52036;DHT22;38046;49.448;32.074;2023-01-31T00:53:30;1.00;66.70
52036;DHT22;38046;49.448;32.074;2023-01-31T00:56:01;1.00;66.60
52036;DHT22;38046;49.448;32.074;2023-01-31T00:58:27;1.00;66.80
52036;DHT22;38046;49.448;32.074;2023-01-31T01:00:53;1.00;66.70
52036;DHT22;38046;49.448;32.074;2023-01-31T01:03:19;1.00;66.70
52036;DHT22;38046;49.448;32.074;2023-01-31T01:05:44;1.00;66.60
52036;DHT22;38046;49.448;32.074;2023-01-31T01:08:10;1.10;66.60
52036;DHT22;38046;49.448;32.074;2023-01-31T01:10:36;1.00;66.50
52036;DHT22;38046;49.448;32.074;2023-01-31T01:13:02;1.00;66.60
52036;DHT22;38046;49.448;32.074;2023-01-31T01:15:30;0.90;66.50
52036;DHT22;38046;49.448;32.074;2023-01-31T01:17:56;0.90;66.60
52036;DHT22;38046;49.448;32.074;2023-01-31T01:20:22;0.80;66.80
52036;DHT22;38046;49.448;32.074;2023-01-31T01:22:48;0.80;66.80
52036;DHT22;38046;49.448;32.074;2023-01-31T01:25:13;0.80;66.90
52036;DHT22;38046;49.448;32.074;2023-01-31T01:27:39;0.90;67.00
52036;DHT22;38046;49.448;32.074;2023-01-31T01:30:05;0.90;66.90
52036;DHT22;38046;49.448;32.074;2023-01-31T01:32:32;0.90;67.00
52036;DHT22;38046;49.448;32.074;2023-01-31T01:34:57;0.90;67.10
52036;DHT22;38046;49.448;32.074;2023-01-31T01:37:23;0.90;67.00
52036;DHT22;38046;49.448;32.074;2023-01-31T01:39:49;0.90;67.10
52036;DHT22;38046;49.448;32.074;2023-01-31T01:42:20;0.90;67.10
52036;DHT22;38046;49.448;32.074;2023-01-31T01:44:53;0.90;66.90
52036;DHT22;38046;49.448;32.074;2023-01-31T01:47:36;0.90;66.90
52036;DHT22;38046;49.448;32.074;2023-01-31T01:50:24;0.90;67.10
52036;DHT22;38046;49.448;32.074;2023-01-31T01:53:12;0.90;67.00
52036;DHT22;38046;49.448;32.074;2023-01-31T01:55:46;0.90;67.00
52036;DHT22;38046;49.448;32.074;2023-01-31T01:58:32;0.90;67.10
52036;DHT22;38046;49.448;32.074;2023-01-31T02:00:58;0.90;67.10
52036;DHT22;38046;49.448;32.074;2023-01-31T02:03:25;0.90;67.30
52036;DHT22;38046;49.448;32.074;2023-01-31T02:06:09;1.00;67.40
52036;DHT22;38046;49.448;32.074;2023-01-31T02:08:37;1.00;67.30
52036;DHT22;38046;49.448;32.074;2023-01-31T02:13:32;1.10;67.30
52036;DHT22;38046;49.448;32.074;2023-01-31T02:15:58;1.10;67.30
52036;DHT22;38046;49.448;32.074;2023-01-31T02:18:24;1.10;67.30
52036;DHT22;38046;49.448;32.074;2023-01-31T02:23:37;1.10;67.20
52036;DHT22;38046;49.448;32.074;2023-01-31T02:26:30;1.10;67.30
52036;DHT22;38046;49.448;32.074;2023-01-31T02:35:16;1.10;67.30
52036;DHT22;38046;49.448;32.074;2023-01-31T02:51:20;1.00;67.30
52036;DHT22;38046;49.448;32.074;2023-01-31T02:58:48;1.00;67.60
52036;DHT22;38046;49.448;32.074;2023-01-31T03:01:26;0.90;67.70
52036;DHT22;38046;49.448;32.074;2023-01-31T03:03:57;0.90;67.60
52036;DHT22;38046;49.448;32.074;2023-01-31T03:09:02;0.90;67.90
52036;DHT22;38046;49.448;32.074;2023-01-31T03:14:31;0.80;68.00
52036;DHT22;38046;49.448;32.074;2023-01-31T03:22:29;0.80;68.00
52036;DHT22;38046;49.448;32.074;2023-01-31T03:24:56;0.90;68.20
52036;DHT22;38046;49.448;32.074;2023-01-31T03:27:22;0.90;68.30
52036;DHT22;38046;49.448;32.074;2023-01-31T03:29:48;0.90;68.40
52036;DHT22;38046;49.448;32.074;2023-01-31T03:32:24;0.90;68.30
52036;DHT22;38046;49.448;32.074;2023-01-31T03:34:52;0.90;68.20
52036;DHT22;38046;49.448;32.074;2023-01-31T03:37:38;0.90;68.20
52036;DHT22;38046;49.448;32.074;2023-01-31T03:40:39;0.90;68.20
52036;DHT22;38046;49.448;32.074;2023-01-31T03:46:02;0.90;68.20
52036;DHT22;38046;49.448;32.074;2023-01-31T03:48:32;0.90;68.20
52036;DHT22;38046;49.448;32.074;2023-01-31T03:51:03;0.90;68.30
52036;DHT22;38046;49.448;32.074;2023-01-31T03:53:40;0.90;68.40
52036;DHT22;38046;49.448;32.074;2023-01-31T03:56:17;0.90;68.40
52036;DHT22;38046;49.448;32.074;2023-01-31T03:58:47;0.90;68.50
52036;DHT22;38046;49.448;32.074;2023-01-31T04:01:17;0.80;68.80
52036;DHT22;38046;49.448;32.074;2023-01-31T04:04:00;0.80;68.60
52036;DHT22;38046;49.448;32.074;2023-01-31T04:06:27;0.80;68.70
52036;DHT22;38046;49.448;32.074;2023-01-31T04:08:54;0.80;68.70
52036;DHT22;38046;49.448;32.074;2023-01-31T04:11:20;0.80;68.90
52036;DHT22;38046;49.448;32.074;2023-01-31T04:13:49;0.80;68.90
52036;DHT22;38046;49.448;32.074;2023-01-31T04:16:14;0.90;69.00
52036;DHT22;38046;49.448;32.074;2023-01-31T04:18:40;0.80;69.00
52036;DHT22;38046;49.448;32.074;2023-01-31T04:21:06;0.90;69.00
52036;DHT22;38046;49.448;32.074;2023-01-31T04:23:32;0.90;69.10
52036;DHT22;38046;49.448;32.074;2023-01-31T04:25:57;0.90;69.10
52036;DHT22;38046;49.448;32.074;2023-01-31T04:28:23;0.90;69.20
52036;DHT22;38046;49.448;32.074;2023-01-31T04:30:53;0.90;69.40
52036;DHT22;38046;49.448;32.074;2023-01-31T04:33:19;0.90;69.70
52036;DHT22;38046;49.448;32.074;2023-01-31T04:35:45;0.90;69.80
52036;DHT22;38046;49.448;32.074;2023-01-31T04:38:11;0.90;69.90
52036;DHT22;38046;49.448;32.074;2023-01-31T04:40:36;0.90;70.10
52036;DHT22;38046;49.448;32.074;2023-01-31T04:43:02;0.90;70.20
52036;DHT22;38046;49.448;32.074;2023-01-31T04:45:28;0.90;70.30
52036;DHT22;38046;49.448;32.074;2023-01-31T04:47:53;1.00;70.40
52036;DHT22;38046;49.448;32.074;2023-01-31T04:50:19;1.00;70.50
52036;DHT22;38046;49.448;32.074;2023-01-31T04:52:47;1.10;70.70
52036;DHT22;38046;49.448;32.074;2023-01-31T04:55:13;1.10;70.70
52036;DHT22;38046;49.448;32.074;2023-01-31T04:57:39;1.20;70.70
52036;DHT22;38046;49.448;32.074;2023-01-31T05:00:05;1.20;70.90
52036;DHT22;38046;49.448;32.074;2023-01-31T05:02:31;1.20;70.90
52036;DHT22;38046;49.448;32.074;2023-01-31T05:04:56;1.20;70.80
52036;DHT22;38046;49.448;32.074;2023-01-31T05:07:22;1.20;70.80
52036;DHT22;38046;49.448;32.074;2023-01-31T05:09:48;1.20;70.90
52036;DHT22;38046;49.448;32.074;2023-01-31T05:12:13;1.30;71.10
52036;DHT22;38046;49.448;32.074;2023-01-31T05:14:39;1.30;71.10
52036;DHT22;38046;49.448;32.074;2023-01-31T05:17:04;1.30;71.10
52036;DHT22;38046;49.448;32.074;2023-01-31T05:19:31;1.30;71.10
52036;DHT22;38046;49.448;32.074;2023-01-31T05:21:56;1.30;71.80
52036;DHT22;38046;49.448;32.074;2023-01-31T05:24:27;1.30;71.10
52036;DHT22;38046;49.448;32.074;2023-01-31T05:26:54;1.30;71.30
52036;DHT22;38046;49.448;32.074;2023-01-31T05:29:27;1.30;71.30
52036;DHT22;38046;49.448;32.074;2023-01-31T05:31:54;1.40;71.40
52036;DHT22;38046;49.448;32.074;2023-01-31T05:34:21;1.40;71.50
52036;DHT22;38046;49.448;32.074;2023-01-31T05:36:47;1.40;71.40
52036;DHT22;38046;49.448;32.074;2023-01-31T05:39:13;1.40;71.40
52036;DHT22;38046;49.448;32.074;2023-01-31T05:41:39;1.40;71.40
52036;DHT22;38046;49.448;32.074;2023-01-31T05:44:04;1.40;71.40
52036;DHT22;38046;49.448;32.074;2023-01-31T05:46:30;1.40;71.40
52036;DHT22;38046;49.448;32.074;2023-01-31T05:48:56;1.40;71.40
52036;DHT22;38046;49.448;32.074;2023-01-31T05:51:21;1.40;71.40
52036;DHT22;38046;49.448;32.074;2023-01-31T05:53:47;1.40;71.40
52036;DHT22;38046;49.448;32.074;2023-01-31T05:56:13;1.40;71.50
52036;DHT22;38046;49.448;32.074;2023-01-31T05:58:39;1.40;71.50
52036;DHT22;38046;49.448;32.074;2023-01-31T06:01:04;1.40;71.70
52036;DHT22;38046;49.448;32.074;2023-01-31T06:03:30;1.40;71.70
52036;DHT22;38046;49.448;32.074;2023-01-31T06:05:56;1.50;71.80
52036;DHT22;38046;49.448;32.074;2023-01-31T06:08:21;1.40;71.80
52036;DHT22;38046;49.448;32.074;2023-01-31T06:10:47;1.40;71.80
52036;DHT22;38046;49.448;32.074;2023-01-31T06:13:12;1.50;72.00
52036;DHT22;38046;49.448;32.074;2023-01-31T06:15:42;1.50;72.10
52036;DHT22;38046;49.448;32.074;2023-01-31T06:18:08;1.50;72.10
52036;DHT22;38046;49.448;32.074;2023-01-31T06:20:33;1.50;72.10
52036;DHT22;38046;49.448;32.074;2023-01-31T06:22:59;1.50;72.70
52036;DHT22;38046;49.448;32.074;2023-01-31T06:25:26;1.60;72.20
52036;DHT22;38046;49.448;32.074;2023-01-31T06:27:52;1.60;72.20
52036;DHT22;38046;49.448;32.074;2023-01-31T06:30:19;1.60;72.40
52036;DHT22;38046;49.448;32.074;2023-01-31T06:32:45;1.60;72.40
52036;DHT22;38046;49.448;32.074;2023-01-31T06:35:10;1.60;72.20
52036;DHT22;38046;49.448;32.074;2023-01-31T06:37:36;1.60;72.30
52036;DHT22;38046;49.448;32.074;2023-01-31T06:40:02;1.70;72.40
52036;DHT22;38046;49.448;32.074;2023-01-31T06:42:27;1.70;72.50
52036;DHT22;38046;49.448;32.074;2023-01-31T06:44:53;1.70;72.60
52036;DHT22;38046;49.448;32.074;2023-01-31T06:47:19;1.70;72.70
52036;DHT22;38046;49.448;32.074;2023-01-31T06:49:44;1.70;72.70
52036;DHT22;38046;49.448;32.074;2023-01-31T06:52:10;1.80;72.60
52036;DHT22;38046;49.448;32.074;2023-01-31T06:54:35;1.80;72.50
52036;DHT22;38046;49.448;32.074;2023-01-31T06:57:01;1.80;72.50
52036;DHT22;38046;49.448;32.074;2023-01-31T06:59:27;1.90;72.50
52036;DHT22;38046;49.448;32.074;2023-01-31T07:01:52;1.90;72.50
52036;DHT22;38046;49.448;32.074;2023-01-31T07:04:18;1.90;72.60
52036;DHT22;38046;49.448;32.074;2023-01-31T07:06:43;2.00;72.70
52036;DHT22;38046;49.448;32.074;2023-01-31T07:09:10;2.00;72.60
52036;DHT22;38046;49.448;32.074;2023-01-31T07:11:36;2.10;72.50
52036;DHT22;38046;49.448;32.074;2023-01-31T07:14:02;2.10;72.30
52036;DHT22;38046;49.448;32.074;2023-01-31T07:16:28;2.20;72.50
52036;DHT22;38046;49.448;32.074;2023-01-31T07:18:55;2.30;72.40
52036;DHT22;38046;49.448;32.074;2023-01-31T07:21:23;2.30;72.20
52036;DHT22;38046;49.448;32.074;2023-01-31T07:23:49;2.30;72.10
52036;DHT22;38046;49.448;32.074;2023-01-31T07:26:15;2.30;71.90
52036;DHT22;38046;49.448;32.074;2023-01-31T07:28:40;2.40;72.00
52036;DHT22;38046;49.448;32.074;2023-01-31T07:31:09;2.40;71.80
52036;DHT22;38046;49.448;32.074;2023-01-31T07:33:36;2.40;71.80
52036;DHT22;38046;49.448;32.074;2023-01-31T07:36:03;2.40;71.90
52036;DHT22;38046;49.448;32.074;2023-01-31T07:38:30;2.40;72.10
52036;DHT22;38046;49.448;32.074;2023-01-31T07:41:03;2.40;72.00
52036;DHT22;38046;49.448;32.074;2023-01-31T07:43:30;2.50;71.90
52036;DHT22;38046;49.448;32.074;2023-01-31T07:45:56;2.40;71.80
52036;DHT22;38046;49.448;32.074;2023-01-31T07:48:21;2.50;71.80
52036;DHT22;38046;49.448;32.074;2023-01-31T07:50:51;2.50;71.90
52036;DHT22;38046;49.448;32.074;2023-01-31T07:53:18;2.50;72.00
52036;DHT22;38046;49.448;32.074;2023-01-31T07:55:44;2.60;72.10
52036;DHT22;38046;49.448;32.074;2023-01-31T07:58:13;2.60;72.20
52036;DHT22;38046;49.448;32.074;2023-01-31T08:00:39;2.60;72.20
52036;DHT22;38046;49.448;32.074;2023-01-31T08:03:26;2.70;72.30
52036;DHT22;38046;49.448;32.074;2023-01-31T08:06:03;2.80;72.40
52036;DHT22;38046;49.448;32.074;2023-01-31T08:08:30;2.90;72.20
52036;DHT22;38046;49.448;32.074;2023-01-31T08:10:56;3.00;72.10
52036;DHT22;38046;49.448;32.074;2023-01-31T08:13:21;3.00;72.10
52036;DHT22;38046;49.448;32.074;2023-01-31T08:15:50;3.10;71.90
52036;DHT22;38046;49.448;32.074;2023-01-31T08:18:16;3.20;71.60
52036;DHT22;38046;49.448;32.074;2023-01-31T08:20:42;3.20;71.30
52036;DHT22;38046;49.448;32.074;2023-01-31T08:23:08;3.30;71.30
52036;DHT22;38046;49.448;32.074;2023-01-31T08:25:33;3.30;71.40
52036;DHT22;38046;49.448;32.074;2023-01-31T08:28:00;3.30;71.20
52036;DHT22;38046;49.448;32.074;2023-01-31T08:30:27;3.40;71.20
52036;DHT22;38046;49.448;32.074;2023-01-31T08:32:53;3.40;71.30
52036;DHT22;38046;49.448;32.074;2023-01-31T08:35:19;3.40;71.30
52036;DHT22;38046;49.448;32.074;2023-01-31T08:37:44;3.40;71.50
52036;DHT22;38046;49.448;32.074;2023-01-31T08:40:13;3.40;71.20
52036;DHT22;38046;49.448;32.074;2023-01-31T08:42:39;3.50;71.50
52036;DHT22;38046;49.448;32.074;2023-01-31T08:45:05;3.50;71.70
52036;DHT22;38046;49.448;32.074;2023-01-31T08:47:32;3.60;71.80
52036;DHT22;38046;49.448;32.074;2023-01-31T08:49:57;3.60;71.70
52036;DHT22;38046;49.448;32.074;2023-01-31T08:52:23;3.70;72.20
52036;DHT22;38046;49.448;32.074;2023-01-31T08:54:49;3.80;71.30
52036;DHT22;38046;49.448;32.074;2023-01-31T08:57:14;3.90;71.90
52036;DHT22;38046;49.448;32.074;2023-01-31T08:59:40;3.90;70.80
52036;DHT22;38046;49.448;32.074;2023-01-31T09:02:08;3.90;70.70
52036;DHT22;38046;49.448;32.074;2023-01-31T09:04:34;3.90;70.60
52036;DHT22;38046;49.448;32.074;2023-01-31T09:06:59;3.90;70.50
52036;DHT22;38046;49.448;32.074;2023-01-31T09:09:25;3.90;70.70
52036;DHT22;38046;49.448;32.074;2023-01-31T09:11:51;3.90;70.70
52036;DHT22;38046;49.448;32.074;2023-01-31T09:14:16;3.90;70.80
52036;DHT22;38046;49.448;32.074;2023-01-31T09:16:42;4.00;70.80
52036;DHT22;38046;49.448;32.074;2023-01-31T09:19:10;4.10;70.80
52036;DHT22;38046;49.448;32.074;2023-01-31T09:21:35;4.10;70.80
52036;DHT22;38046;49.448;32.074;2023-01-31T09:24:01;4.10;70.70
52036;DHT22;38046;49.448;32.074;2023-01-31T09:26:28;4.10;70.80
52036;DHT22;38046;49.448;32.074;2023-01-31T09:28:54;4.10;70.90
52036;DHT22;38046;49.448;32.074;2023-01-31T09:31:20;4.10;70.80
52036;DHT22;38046;49.448;32.074;2023-01-31T09:33:46;4.10;71.00
52036;DHT22;38046;49.448;32.074;2023-01-31T09:36:17;4.10;70.90
52036;DHT22;38046;49.448;32.074;2023-01-31T09:38:43;4.10;70.80
52036;DHT22;38046;49.448;32.074;2023-01-31T09:41:31;4.20;70.80
52036;DHT22;38046;49.448;32.074;2023-01-31T09:46:34;4.30;70.60
52036;DHT22;38046;49.448;32.074;2023-01-31T09:49:00;4.30;70.60
52036;DHT22;38046;49.448;32.074;2023-01-31T09:51:28;4.30;70.50
52036;DHT22;38046;49.448;32.074;2023-01-31T09:53:54;4.30;70.70
52036;DHT22;38046;49.448;32.074;2023-01-31T10:02:13;4.30;71.20
52036;DHT22;38046;49.448;32.074;2023-01-31T10:07:55;4.40;71.10
52036;DHT22;38046;49.448;32.074;2023-01-31T10:10:34;4.50;71.70
52036;DHT22;38046;49.448;32.074;2023-01-31T10:13:08;4.50;71.10
52036;DHT22;38046;49.448;32.074;2023-01-31T10:15:45;4.50;71.10
52036;DHT22;38046;49.448;32.074;2023-01-31T10:18:21;4.50;71.00
52036;DHT22;38046;49.448;32.074;2023-01-31T10:20:49;4.50;71.20
52036;DHT22;38046;49.448;32.074;2023-01-31T10:23:26;4.50;71.50
52036;DHT22;38046;49.448;32.074;2023-01-31T10:26:00;4.60;71.20
52036;DHT22;38046;49.448;32.074;2023-01-31T10:28:29;4.60;71.10
52036;DHT22;38046;49.448;32.074;2023-01-31T10:31:28;4.70;71.00
52036;DHT22;38046;49.448;32.074;2023-01-31T10:34:13;4.80;70.60
52036;DHT22;38046;49.448;32.074;2023-01-31T10:36:46;4.90;70.40
52036;DHT22;38046;49.448;32.074;2023-01-31T10:44:54;4.90;69.90
52036;DHT22;38046;49.448;32.074;2023-01-31T10:47:32;4.90;69.80
52036;DHT22;38046;49.448;32.074;2023-01-31T10:49:58;4.90;69.80
52036;DHT22;38046;49.448;32.074;2023-01-31T10:52:44;4.90;69.90
52036;DHT22;38046;49.448;32.074;2023-01-31T10:58:16;5.00;70.00
52036;DHT22;38046;49.448;32.074;2023-01-31T11:00:42;5.10;70.00
52036;DHT22;38046;49.448;32.074;2023-01-31T11:03:12;5.10;70.10
52036;DHT22;38046;49.448;32.074;2023-01-31T11:06:03;5.20;70.10
52036;DHT22;38046;49.448;32.074;2023-01-31T11:08:39;5.20;70.10
52036;DHT22;38046;49.448;32.074;2023-01-31T11:11:09;5.10;70.40
52036;DHT22;38046;49.448;32.074;2023-01-31T11:13:35;5.10;70.50
52036;DHT22;38046;49.448;32.074;2023-01-31T11:16:02;5.10;70.40
52036;DHT22;38046;49.448;32.074;2023-01-31T11:18:43;5.10;70.40
52036;DHT22;38046;49.448;32.074;2023-01-31T11:21:19;5.20;70.40
52036;DHT22;38046;49.448;32.074;2023-01-31T11:23:45;5.20;70.30
52036;DHT22;38046;49.448;32.074;2023-01-31T11:26:11;5.30;70.20
52036;DHT22;38046;49.448;32.074;2023-01-31T11:28:40;5.30;70.20
52036;DHT22;38046;49.448;32.074;2023-01-31T11:31:17;5.30;70.30
52036;DHT22;38046;49.448;32.074;2023-01-31T11:33:54;5.30;70.20
52036;DHT22;38046;49.448;32.074;2023-01-31T11:36:20;5.20;70.40
52036;DHT22;38046;49.448;32.074;2023-01-31T11:38:51;5.20;70.80
52036;DHT22;38046;49.448;32.074;2023-01-31T11:41:28;5.20;71.00
52036;DHT22;38046;49.448;32.074;2023-01-31T11:46:54;5.20;71.00
52036;DHT22;38046;49.448;32.074;2023-01-31T11:49:32;5.30;70.70
52036;DHT22;38046;49.448;32.074;2023-01-31T11:55:04;5.30;70.10
52036;DHT22;38046;49.448;32.074;2023-01-31T11:57:35;5.30;70.00
52036;DHT22;38046;49.448;32.074;2023-01-31T12:01:18;5.30;69.80
52036;DHT22;38046;49.448;32.074;2023-01-31T12:03:14;5.30;70.00
52036;DHT22;38046;49.448;32.074;2023-01-31T12:05:44;5.30;69.70
52036;DHT22;38046;49.448;32.074;2023-01-31T12:08:35;5.30;69.80
52036;DHT22;38046;49.448;32.074;2023-01-31T12:13:51;5.30;69.90
52036;DHT22;38046;49.448;32.074;2023-01-31T12:16:23;5.30;70.00
52036;DHT22;38046;49.448;32.074;2023-01-31T12:24:32;5.40;70.00
52036;DHT22;38046;49.448;32.074;2023-01-31T12:30:06;5.40;69.80
52036;DHT22;38046;49.448;32.074;2023-01-31T12:52:19;5.30;70.30
52036;DHT22;38046;49.448;32.074;2023-01-31T12:54:51;5.30;70.40
52036;DHT22;38046;49.448;32.074;2023-01-31T13:00:31;5.30;70.30
52036;DHT22;38046;49.448;32.074;2023-01-31T13:08:27;5.10;70.10
52036;DHT22;38046;49.448;32.074;2023-01-31T13:11:06;5.10;70.40
52036;DHT22;38046;49.448;32.074;2023-01-31T13:14:16;5.10;70.60
52036;DHT22;38046;49.448;32.074;2023-01-31T13:16:37;5.10;70.70
52036;DHT22;38046;49.448;32.074;2023-01-31T13:21:47;5.00;70.70
52036;DHT22;38046;49.448;32.074;2023-01-31T13:24:20;5.00;70.70
52036;DHT22;38046;49.448;32.074;2023-01-31T13:26:59;5.00;70.70
52036;DHT22;38046;49.448;32.074;2023-01-31T13:29:46;5.00;70.90
52036;DHT22;38046;49.448;32.074;2023-01-31T13:32:40;5.00;70.90
52036;DHT22;38046;49.448;32.074;2023-01-31T13:35:17;5.00;71.10
52036;DHT22;38046;49.448;32.074;2023-01-31T13:37:48;5.00;71.30
52036;DHT22;38046;49.448;32.074;2023-01-31T13:40:24;5.00;71.20
52036;DHT22;38046;49.448;32.074;2023-01-31T13:42:51;5.10;71.10
52036;DHT22;38046;49.448;32.074;2023-01-31T13:45:34;5.10;71.30
52036;DHT22;38046;49.448;32.074;2023-01-31T13:48:09;5.10;71.20
52036;DHT22;38046;49.448;32.074;2023-01-31T13:50:52;5.10;71.30
52036;DHT22;38046;49.448;32.074;2023-01-31T13:53:23;5.10;71.30
52036;DHT22;38046;49.448;32.074;2023-01-31T13:55:51;5.20;71.30
52036;DHT22;38046;49.448;32.074;2023-01-31T13:58:22;5.10;71.20
52036;DHT22;38046;49.448;32.074;2023-01-31T14:00:57;5.10;71.40
52036;DHT22;38046;49.448;32.074;2023-01-31T14:03:26;5.00;71.40
52036;DHT22;38046;49.448;32.074;2023-01-31T14:05:57;5.00;71.80
52036;DHT22;38046;49.448;32.074;2023-01-31T14:10:52;4.90;72.10
52036;DHT22;38046;49.448;32.074;2023-01-31T14:15:57;4.90;72.40
52036;DHT22;38046;49.448;32.074;2023-01-31T14:23:59;4.90;71.80
52036;DHT22;38046;49.448;32.074;2023-01-31T14:26:51;4.90;71.70
52036;DHT22;38046;49.448;32.074;2023-01-31T14:29:24;4.80;71.60
52036;DHT22;38046;49.448;32.074;2023-01-31T14:31:52;4.80;71.80
52036;DHT22;38046;49.448;32.074;2023-01-31T14:34:23;4.80;71.90
52036;DHT22;38046;49.448;32.074;2023-01-31T14:57:18;4.80;72.10
52036;DHT22;38046;49.448;32.074;2023-01-31T14:59:57;4.80;72.00
52036;DHT22;38046;49.448;32.074;2023-01-31T15:05:12;4.80;71.90
52036;DHT22;38046;49.448;32.074;2023-01-31T15:08:02;4.80;72.00
52036;DHT22;38046;49.448;32.074;2023-01-31T15:16:03;4.70;72.50
52036;DHT22;38046;49.448;32.074;2023-01-31T15:18:30;4.70;72.60
52036;DHT22;38046;49.448;32.074;2023-01-31T15:21:01;4.70;72.80
52036;DHT22;38046;49.448;32.074;2023-01-31T15:23:30;4.70;72.70
52036;DHT22;38046;49.448;32.074;2023-01-31T15:25:58;4.70;72.80
52036;DHT22;38046;49.448;32.074;2023-01-31T15:28:32;4.70;72.60
52036;DHT22;38046;49.448;32.074;2023-01-31T15:31:03;4.70;72.50
52036;DHT22;38046;49.448;32.074;2023-01-31T15:33:33;4.70;72.60
52036;DHT22;38046;49.448;32.074;2023-01-31T15:37:13;4.60;72.70
52036;DHT22;38046;49.448;32.074;2023-01-31T15:39:25;4.60;72.70
52036;DHT22;38046;49.448;32.074;2023-01-31T15:41:53;4.60;72.80
52036;DHT22;38046;49.448;32.074;2023-01-31T15:44:26;4.60;72.60
52036;DHT22;38046;49.448;32.074;2023-01-31T15:46:55;4.60;72.70
52036;DHT22;38046;49.448;32.074;2023-01-31T15:49:28;4.60;73.30
52036;DHT22;38046;49.448;32.074;2023-01-31T15:52:18;4.60;72.70
52036;DHT22;38046;49.448;32.074;2023-01-31T15:54:58;4.60;72.80
52036;DHT22;38046;49.448;32.074;2023-01-31T15:57:27;4.60;72.90
52036;DHT22;38046;49.448;32.074;2023-01-31T15:59:54;4.60;73.00
52036;DHT22;38046;49.448;32.074;2023-01-31T16:02:26;4.50;73.00
52036;DHT22;38046;49.448;32.074;2023-01-31T16:04:53;4.60;73.20
52036;DHT22;38046;49.448;32.074;2023-01-31T16:07:22;4.60;73.20
52036;DHT22;38046;49.448;32.074;2023-01-31T16:09:56;4.60;73.20
52036;DHT22;38046;49.448;32.074;2023-01-31T16:12:23;4.60;73.30
52036;DHT22;38046;49.448;32.074;2023-01-31T16:14:49;4.60;73.30
52036;DHT22;38046;49.448;32.074;2023-01-31T16:17:15;4.60;73.30
52036;DHT22;38046;49.448;32.074;2023-01-31T16:19:41;4.60;73.20
52036;DHT22;38046;49.448;32.074;2023-01-31T16:22:37;4.60;73.10
52036;DHT22;38046;49.448;32.074;2023-01-31T16:25:03;4.70;73.00
52036;DHT22;38046;49.448;32.074;2023-01-31T16:27:34;4.60;73.00
52036;DHT22;38046;49.448;32.074;2023-01-31T16:30:00;4.60;73.20
52036;DHT22;38046;49.448;32.074;2023-01-31T16:32:35;4.60;73.20
52036;DHT22;38046;49.448;32.074;2023-01-31T16:35:03;4.60;73.30
52036;DHT22;38046;49.448;32.074;2023-01-31T16:37:30;4.60;73.60
52036;DHT22;38046;49.448;32.074;2023-01-31T16:40:05;4.60;73.90
52036;DHT22;38046;49.448;32.074;2023-01-31T16:42:31;4.60;73.90
52036;DHT22;38046;49.448;32.074;2023-01-31T16:44:59;4.60;73.80
52036;DHT22;38046;49.448;32.074;2023-01-31T16:52:45;4.60;74.00
52036;DHT22;38046;49.448;32.074;2023-01-31T16:55:19;4.70;73.80
52036;DHT22;38046;49.448;32.074;2023-01-31T16:57:45;4.70;73.90
52036;DHT22;38046;49.448;32.074;2023-01-31T17:02:53;4.70;73.80
52036;DHT22;38046;49.448;32.074;2023-01-31T17:05:34;4.70;73.60
52036;DHT22;38046;49.448;32.074;2023-01-31T17:08:02;4.70;73.50
52036;DHT22;38046;49.448;32.074;2023-01-31T17:10:32;4.80;73.50
52036;DHT22;38046;49.448;32.074;2023-01-31T17:13:25;4.80;73.50
52036;DHT22;38046;49.448;32.074;2023-01-31T17:15:50;4.70;73.50
52036;DHT22;38046;49.448;32.074;2023-01-31T17:18:16;4.70;73.50
52036;DHT22;38046;49.448;32.074;2023-01-31T17:20:44;4.70;73.60
52036;DHT22;38046;49.448;32.074;2023-01-31T17:23:11;4.70;73.60
52036;DHT22;38046;49.448;32.074;2023-01-31T17:25:37;4.70;73.80
52036;DHT22;38046;49.448;32.074;2023-01-31T17:28:03;4.70;73.80
52036;DHT22;38046;49.448;32.074;2023-01-31T17:30:29;4.70;73.90
52036;DHT22;38046;49.448;32.074;2023-01-31T17:32:57;4.60;74.00
52036;DHT22;38046;49.448;32.074;2023-01-31T17:35:35;4.60;74.10
52036;DHT22;38046;49.448;32.074;2023-01-31T17:38:02;4.70;74.20
52036;DHT22;38046;49.448;32.074;2023-01-31T17:40:27;4.60;74.00
52036;DHT22;38046;49.448;32.074;2023-01-31T17:42:58;4.70;74.20
52036;DHT22;38046;49.448;32.074;2023-01-31T17:45:24;4.60;74.30
52036;DHT22;38046;49.448;32.074;2023-01-31T17:47:50;4.70;74.30
52036;DHT22;38046;49.448;32.074;2023-01-31T17:50:21;4.70;74.30
52036;DHT22;38046;49.448;32.074;2023-01-31T17:52:48;4.70;74.30
52036;DHT22;38046;49.448;32.074;2023-01-31T17:55:14;4.70;74.30
52036;DHT22;38046;49.448;32.074;2023-01-31T17:57:40;4.60;74.30
52036;DHT22;38046;49.448;32.074;2023-01-31T18:00:08;4.70;74.30
52036;DHT22;38046;49.448;32.074;2023-01-31T18:02:38;4.70;74.50
52036;DHT22;38046;49.448;32.074;2023-01-31T18:05:07;4.70;74.40
52036;DHT22;38046;49.448;32.074;2023-01-31T18:07:33;4.70;74.20
52036;DHT22;38046;49.448;32.074;2023-01-31T18:09:58;4.70;74.30
52036;DHT22;38046;49.448;32.074;2023-01-31T18:12:24;4.70;75.00
52036;DHT22;38046;49.448;32.074;2023-01-31T18:14:50;4.70;74.50
52036;DHT22;38046;49.448;32.074;2023-01-31T18:17:15;4.70;74.30
52036;DHT22;38046;49.448;32.074;2023-01-31T18:19:41;4.70;74.30
52036;DHT22;38046;49.448;32.074;2023-01-31T18:22:07;4.70;74.20
52036;DHT22;38046;49.448;32.074;2023-01-31T18:24:32;4.60;74.00
52036;DHT22;38046;49.448;32.074;2023-01-31T18:26:58;4.60;73.90